Time;durP1;ratioP1;P1;durP2;ratioP2;P2;SDS_P1;SDS_P2;PMS_P1;PMS_P2;Temp;Humidity;BMP_temperature;BMP_pressure;BME280_temperature;BME280_humidity;BME280_pressure;Samples;Min_cycle;Max_cycle;Signal;HPM_P1;HPM_P2
2021/09/19 00:00:51;;;;;;;10.98;4.03;;;16.60;99.30;;;;;;4973483;28;20551;-70
2021/09/19 00:03:17;;;;;;;10.38;4.10;;;16.60;99.20;;;;;;4973664;28;20481;-70
2021/09/19 00:05:42;;;;;;;5.80;3.53;;;16.60;99.20;;;;;;4974063;28;20027;-71
2021/09/19 00:08:08;;;;;;;9.63;4.15;;;16.50;99.20;;;;;;4973612;28;20449;-71
2021/09/19 00:10:34;;;;;;;10.73;5.07;;;16.50;99.30;;;;;;4973557;28;20023;-71
2021/09/19 00:12:59;;;;;;;8.02;3.85;;;16.50;99.30;;;;;;4973480;28;20117;-71
2021/09/19 00:15:25;;;;;;;10.93;4.18;;;16.50;99.30;;;;;;4972485;28;20070;-71
2021/09/19 00:17:50;;;;;;;6.65;4.00;;;16.40;99.30;;;;;;4973709;28;20027;-71
2021/09/19 00:20:16;;;;;;;7.63;3.83;;;16.40;99.30;;;;;;4973294;28;20030;-71
2021/09/19 00:22:42;;;;;;;8.25;3.80;;;16.40;99.30;;;;;;4973028;28;20122;-71
2021/09/19 00:25:10;;;;;;;6.72;4.03;;;16.40;99.40;;;;;;4973186;28;20031;-70
2021/09/19 00:27:36;;;;;;;4.35;3.55;;;16.30;99.40;;;;;;4973054;28;20043;-70
2021/09/19 00:30:03;;;;;;;7.70;4.07;;;16.40;99.40;;;;;;4972411;28;20023;-70
2021/09/19 00:32:29;;;;;;;7.03;4.10;;;16.40;99.30;;;;;;4973413;28;20042;-69
2021/09/19 00:34:54;;;;;;;9.02;4.15;;;16.40;99.40;;;;;;4973102;28;20034;-70
2021/09/19 00:37:20;;;;;;;8.57;3.83;;;16.40;99.40;;;;;;4973060;28;20106;-70
2021/09/19 00:39:45;;;;;;;10.70;4.03;;;16.40;99.30;;;;;;4973065;28;20035;-69
2021/09/19 00:42:11;;;;;;;9.40;4.25;;;16.30;99.40;;;;;;4972617;28;20026;-69
2021/09/19 00:44:37;;;;;;;5.15;3.78;;;16.30;99.40;;;;;;4973189;28;20390;-70
2021/09/19 00:47:02;;;;;;;5.18;3.90;;;16.30;99.40;;;;;;4972805;28;20516;-70
2021/09/19 00:49:28;;;;;;;7.45;3.75;;;16.30;99.40;;;;;;4972967;28;20059;-70
2021/09/19 00:51:54;;;;;;;6.93;4.00;;;16.30;99.40;;;;;;4972806;28;20034;-71
2021/09/19 00:54:23;;;;;;;11.63;4.72;;;16.30;99.40;;;;;;4970224;28;20043;-70
2021/09/19 00:56:55;;;;;;;7.93;3.97;;;16.30;99.40;;;;;;4953845;28;20054;-70
2021/09/19 00:59:21;;;;;;;6.78;3.60;;;16.30;99.40;;;;;;4972089;28;20038;-70
2021/09/19 01:01:51;;;;;;;5.72;4.10;;;16.30;99.40;;;;;;4972799;28;20031;-70
2021/09/19 01:04:17;;;;;;;9.70;4.40;;;16.30;99.40;;;;;;4972615;28;20456;-70
2021/09/19 01:06:43;;;;;;;11.48;3.75;;;16.30;99.40;;;;;;4972744;28;20349;-70
2021/09/19 01:09:09;;;;;;;6.53;3.85;;;16.30;99.40;;;;;;4972011;28;20116;-70
2021/09/19 01:11:35;;;;;;;10.88;4.00;;;16.30;99.40;;;;;;4972976;28;20066;-70
2021/09/19 01:14:01;;;;;;;12.05;4.15;;;16.30;99.40;;;;;;4972451;28;20035;-70
2021/09/19 01:16:27;;;;;;;8.38;3.97;;;16.30;99.40;;;;;;4972611;28;20042;-70
2021/09/19 01:18:54;;;;;;;6.05;4.05;;;16.30;99.40;;;;;;4972704;28;20440;-70
2021/09/19 01:21:20;;;;;;;10.55;4.88;;;16.30;99.40;;;;;;4972433;28;20045;-71
2021/09/19 01:24:01;;;;;;;8.43;4.55;;;16.30;99.40;;;;;;4972953;28;20035;-70
2021/09/19 01:26:27;;;;;;;10.57;4.30;;;16.30;99.40;;;;;;4972339;28;20113;-71
2021/09/19 01:28:53;;;;;;;8.90;4.63;;;16.20;99.30;;;;;;4971451;28;20027;-71
2021/09/19 01:31:19;;;;;;;9.35;4.22;;;16.20;99.30;;;;;;4972285;28;20042;-71
2021/09/19 01:33:45;;;;;;;9.35;3.88;;;16.20;99.40;;;;;;4972463;28;20043;-70
2021/09/19 01:36:11;;;;;;;10.80;5.03;;;16.20;99.40;;;;;;4983209;28;20348;-70
2021/09/19 01:38:37;;;;;;;6.90;3.33;;;16.20;99.40;;;;;;4992378;28;20015;-70
2021/09/19 01:41:03;;;;;;;7.85;4.20;;;16.10;99.20;;;;;;4991799;28;20030;-71
2021/09/19 01:43:29;;;;;;;8.48;4.30;;;16.10;99.20;;;;;;4995443;28;20346;-70
2021/09/19 01:46:02;;;;;;;9.75;4.50;;;16.10;99.20;;;;;;4995506;28;20076;-71
2021/09/19 01:48:33;;;;;;;7.55;3.72;;;16.00;99.20;;;;;;4995486;28;20034;-71
2021/09/19 01:50:59;;;;;;;9.23;4.03;;;16.00;99.10;;;;;;4994907;28;20053;-72
2021/09/19 01:53:24;;;;;;;12.27;4.32;;;16.00;98.80;;;;;;4995899;28;20735;-72
2021/09/19 01:55:50;;;;;;;8.45;4.28;;;15.90;98.60;;;;;;4995154;28;20099;-71
2021/09/19 01:58:16;;;;;;;5.50;3.58;;;15.90;98.40;;;;;;4995212;28;20374;-71
2021/09/19 02:00:41;;;;;;;6.90;3.63;;;15.80;98.30;;;;;;4995477;28;20098;-71
2021/09/19 02:03:07;;;;;;;7.82;3.42;;;15.70;98.20;;;;;;4995131;28;20179;-72
2021/09/19 02:05:32;;;;;;;7.47;3.42;;;15.70;98.10;;;;;;4994915;28;20046;-72
2021/09/19 02:07:58;;;;;;;6.97;3.90;;;15.60;98.20;;;;;;4994860;28;20473;-71
2021/09/19 02:10:23;;;;;;;8.02;4.03;;;15.60;98.10;;;;;;4995340;28;20030;-72
2021/09/19 02:12:49;;;;;;;8.60;3.90;;;15.50;98.20;;;;;;4994185;28;20341;-71
2021/09/19 02:15:16;;;;;;;6.07;3.75;;;15.50;98.20;;;;;;4994920;28;20346;-71
2021/09/19 02:17:42;;;;;;;8.55;4.03;;;15.50;98.20;;;;;;4995566;28;20093;-71
2021/09/19 02:20:11;;;;;;;7.22;3.85;;;15.50;98.20;;;;;;4994940;28;20420;-71
2021/09/19 02:22:36;;;;;;;9.27;3.70;;;15.50;98.20;;;;;;4994992;28;20027;-71
2021/09/19 02:25:03;;;;;;;7.88;3.63;;;15.40;98.10;;;;;;4994928;28;20035;-71
2021/09/19 02:27:29;;;;;;;9.60;3.45;;;15.40;98.00;;;;;;4994845;28;20049;-71
2021/09/19 02:29:54;;;;;;;6.97;3.65;;;15.30;98.00;;;;;;4994274;28;20338;-71
2021/09/19 02:32:20;;;;;;;7.13;4.20;;;15.30;98.00;;;;;;4994950;28;20034;-71
2021/09/19 02:34:46;;;;;;;8.95;3.85;;;15.30;98.00;;;;;;4994890;28;20026;-71
2021/09/19 02:37:11;;;;;;;7.07;3.45;;;15.20;98.00;;;;;;4993623;28;20041;-71
2021/09/19 02:39:37;;;;;;;7.63;3.65;;;15.20;98.00;;;;;;4994672;28;20461;-71
2021/09/19 02:42:03;;;;;;;8.93;3.40;;;15.20;98.10;;;;;;4994832;28;20026;-71
2021/09/19 02:44:29;;;;;;;8.23;3.92;;;15.20;98.40;;;;;;4993927;28;20030;-71
2021/09/19 02:46:54;;;;;;;5.78;3.65;;;15.20;98.10;;;;;;4994509;28;20031;-71
2021/09/19 02:49:20;;;;;;;8.38;3.60;;;15.20;98.00;;;;;;4994604;28;20121;-70
2021/09/19 02:51:45;;;;;;;7.13;3.22;;;15.20;98.00;;;;;;4994406;28;20037;-71
2021/09/19 02:54:11;;;;;;;6.60;3.75;;;15.10;97.90;;;;;;4993520;28;20034;-71
2021/09/19 02:56:36;;;;;;;6.95;3.80;;;15.20;97.90;;;;;;4994830;28;20023;-70
2021/09/19 02:59:02;;;;;;;6.95;3.55;;;15.10;98.00;;;;;;4994185;28;20465;-71
2021/09/19 03:01:28;;;;;;;9.30;3.30;;;15.10;98.00;;;;;;4993297;28;20530;-70
2021/09/19 03:03:53;;;;;;;9.13;3.90;;;15.10;98.00;;;;;;4994067;28;20034;-70
2021/09/19 03:06:21;;;;;;;7.68;3.85;;;15.00;98.00;;;;;;4994310;28;20057;-70
2021/09/19 03:08:47;;;;;;;9.15;3.65;;;15.10;98.10;;;;;;4994327;28;20133;-71
2021/09/19 03:11:13;;;;;;;11.75;3.40;;;15.00;98.00;;;;;;4993910;28;20038;-71
2021/09/19 03:13:39;;;;;;;6.15;3.65;;;15.00;98.10;;;;;;4993840;28;20282;-71
2021/09/19 03:16:04;;;;;;;12.48;4.22;;;15.00;98.10;;;;;;4993897;28;20085;-71
2021/09/19 03:18:30;;;;;;;8.13;4.07;;;15.00;98.10;;;;;;4993811;28;20401;-71
2021/09/19 03:20:56;;;;;;;6.90;3.88;;;15.00;98.20;;;;;;4993647;28;20034;-71
2021/09/19 03:23:22;;;;;;;10.85;3.72;;;15.00;98.20;;;;;;4993758;28;20035;-72
2021/09/19 03:25:47;;;;;;;8.75;3.97;;;15.00;98.30;;;;;;4993943;28;20033;-71
2021/09/19 03:28:13;;;;;;;6.47;4.13;;;15.10;98.30;;;;;;4993771;28;20177;-71
2021/09/19 03:30:39;;;;;;;11.95;3.97;;;15.10;98.20;;;;;;4993096;28;20054;-70
2021/09/19 03:33:04;;;;;;;6.35;3.45;;;15.00;98.30;;;;;;4993589;28;20031;-71
2021/09/19 03:35:30;;;;;;;7.70;3.72;;;15.00;98.30;;;;;;4994061;28;20337;-71
2021/09/19 03:37:56;;;;;;;7.35;4.32;;;15.10;98.30;;;;;;4993614;28;20104;-71
2021/09/19 03:40:21;;;;;;;6.72;3.70;;;15.10;98.20;;;;;;4993396;28;20030;-72
2021/09/19 03:42:50;;;;;;;7.93;4.03;;;15.10;98.10;;;;;;4993381;28;20034;-71
2021/09/19 03:45:15;;;;;;;7.72;4.03;;;15.10;98.10;;;;;;4993339;28;20045;-70
2021/09/19 03:47:41;;;;;;;13.38;3.83;;;15.10;98.10;;;;;;4993761;28;20472;-72
2021/09/19 03:50:08;;;;;;;8.18;3.72;;;15.10;98.10;;;;;;4993277;28;20030;-70
2021/09/19 03:52:33;;;;;;;9.88;3.58;;;15.10;98.10;;;;;;4993296;28;20290;-69
2021/09/19 03:54:59;;;;;;;7.63;3.70;;;15.10;98.20;;;;;;4993035;28;20451;-70
2021/09/19 03:57:24;;;;;;;8.27;3.80;;;15.00;98.10;;;;;;4991961;28;20044;-71
2021/09/19 03:59:50;;;;;;;9.57;4.20;;;15.10;98.10;;;;;;4992378;28;20035;-71
2021/09/19 04:02:15;;;;;;;8.60;4.32;;;15.10;98.10;;;;;;4992835;28;20037;-71
2021/09/19 04:04:41;;;;;;;7.78;4.07;;;15.10;98.00;;;;;;4992063;28;20408;-71
2021/09/19 04:07:07;;;;;;;8.38;3.85;;;15.10;98.40;;;;;;4992517;28;20409;-71
2021/09/19 04:09:32;;;;;;;10.18;4.47;;;15.00;98.10;;;;;;4991997;28;20121;-71
2021/09/19 04:11:58;;;;;;;12.32;4.30;;;14.90;98.10;;;;;;4993257;28;20034;-71
2021/09/19 04:14:23;;;;;;;7.65;3.80;;;14.90;98.10;;;;;;4992754;28;20042;-71
2021/09/19 04:16:49;;;;;;;8.55;3.50;;;14.90;98.10;;;;;;4992789;28;20436;-71
2021/09/19 04:19:15;;;;;;;8.00;3.90;;;14.90;98.20;;;;;;4992538;28;20034;-70
2021/09/19 04:21:41;;;;;;;9.30;4.78;;;14.90;98.20;;;;;;4992745;28;20049;-70
2021/09/19 04:24:06;;;;;;;7.78;4.15;;;14.90;98.30;;;;;;4992574;28;20146;-70
2021/09/19 04:26:32;;;;;;;11.32;4.22;;;14.90;98.20;;;;;;4992917;28;20042;-70
2021/09/19 04:28:57;;;;;;;11.18;3.45;;;14.90;98.30;;;;;;4992608;28;20050;-70
2021/09/19 04:31:23;;;;;;;7.63;4.03;;;14.90;98.20;;;;;;4992738;28;20041;-71
2021/09/19 04:33:48;;;;;;;6.90;3.53;;;14.90;98.20;;;;;;4992580;28;20034;-71
2021/09/19 04:36:14;;;;;;;10.60;4.43;;;14.90;98.30;;;;;;4992562;28;20279;-71
2021/09/19 04:38:39;;;;;;;7.82;3.70;;;14.80;98.20;;;;;;4992954;28;20023;-71
2021/09/19 04:41:05;;;;;;;7.15;3.85;;;14.80;98.30;;;;;;4992496;28;20022;-71
2021/09/19 04:43:31;;;;;;;5.80;3.72;;;14.80;98.30;;;;;;4992457;28;20112;-71
2021/09/19 04:45:56;;;;;;;8.15;3.75;;;14.80;98.30;;;;;;4992500;28;20117;-71
2021/09/19 04:48:22;;;;;;;9.75;4.43;;;14.90;98.30;;;;;;4992233;28;20045;-72
2021/09/19 04:50:48;;;;;;;12.02;4.18;;;14.80;98.20;;;;;;4992753;28;20697;-72
2021/09/19 04:53:14;;;;;;;9.00;4.35;;;14.80;98.20;;;;;;4992247;28;20084;-70
2021/09/19 04:55:39;;;;;;;9.20;3.97;;;14.80;98.20;;;;;;4992116;28;20034;-71
2021/09/19 04:58:05;;;;;;;6.18;4.00;;;14.80;98.30;;;;;;4992168;28;20045;-72
2021/09/19 05:00:30;;;;;;;7.97;3.80;;;14.80;98.30;;;;;;4992374;28;20093;-72
2021/09/19 05:02:56;;;;;;;9.30;4.15;;;14.80;98.30;;;;;;4992712;28;20036;-71
2021/09/19 05:05:22;;;;;;;8.32;4.03;;;14.80;98.30;;;;;;4992089;28;20544;-70
2021/09/19 05:07:48;;;;;;;9.68;4.18;;;14.80;98.30;;;;;;4991882;28;20420;-70
2021/09/19 05:10:13;;;;;;;9.77;3.90;;;14.80;98.30;;;;;;4991112;28;20046;-72
2021/09/19 05:12:39;;;;;;;8.13;4.28;;;14.80;98.30;;;;;;4991950;28;20034;-71
2021/09/19 05:15:05;;;;;;;8.38;4.32;;;14.80;98.40;;;;;;4992046;28;20037;-72
2021/09/19 05:17:31;;;;;;;5.57;3.70;;;14.70;98.40;;;;;;4992014;28;20436;-71
2021/09/19 05:19:56;;;;;;;15.40;4.45;;;14.70;98.40;;;;;;4992038;28;20037;-71
2021/09/19 05:22:22;;;;;;;10.35;4.07;;;14.70;98.40;;;;;;4991659;28;20122;-72
2021/09/19 05:24:48;;;;;;;5.53;3.78;;;14.70;98.50;;;;;;4991955;28;20034;-70
2021/09/19 05:27:13;;;;;;;6.80;4.40;;;14.70;98.50;;;;;;4991949;28;20400;-72
2021/09/19 05:29:39;;;;;;;11.93;4.03;;;14.70;98.50;;;;;;4992391;28;20620;-71
2021/09/19 05:32:05;;;;;;;11.05;5.13;;;14.70;98.50;;;;;;4992263;28;20035;-71
2021/09/19 05:34:31;;;;;;;7.10;4.28;;;14.70;98.50;;;;;;4991789;28;20038;-71
2021/09/19 05:36:58;;;;;;;8.50;3.58;;;14.70;98.50;;;;;;4992106;28;20504;-71
2021/09/19 05:39:23;;;;;;;9.27;4.28;;;14.70;98.50;;;;;;4990679;28;20069;-72
2021/09/19 05:41:50;;;;;;;9.35;4.50;;;14.70;98.50;;;;;;4992358;28;20027;-71
2021/09/19 05:44:16;;;;;;;12.35;4.38;;;14.80;98.50;;;;;;4991701;28;20433;-71
2021/09/19 05:46:41;;;;;;;13.48;4.38;;;14.80;98.50;;;;;;4991708;28;20118;-71
2021/09/19 05:49:07;;;;;;;5.75;3.58;;;14.70;98.50;;;;;;4991798;28;20038;-70
2021/09/19 05:51:32;;;;;;;8.05;4.53;;;14.80;98.50;;;;;;4991602;28;20030;-71
2021/09/19 05:53:58;;;;;;;6.18;4.45;;;14.70;98.50;;;;;;4992128;28;20114;-71
2021/09/19 05:56:24;;;;;;;7.30;3.92;;;14.80;98.50;;;;;;4991382;28;20388;-72
2021/09/19 05:58:49;;;;;;;8.35;4.00;;;14.70;98.40;;;;;;4991461;28;20069;-71
2021/09/19 06:01:15;;;;;;;8.32;4.13;;;14.80;98.50;;;;;;4991573;28;20053;-71
2021/09/19 06:03:41;;;;;;;9.10;4.30;;;14.80;98.50;;;;;;4991285;28;20100;-70
2021/09/19 06:06:07;;;;;;;9.90;4.10;;;14.80;98.40;;;;;;4991502;28;20105;-71
2021/09/19 06:08:32;;;;;;;7.75;3.78;;;14.80;98.40;;;;;;4991576;28;20129;-71
2021/09/19 06:10:58;;;;;;;10.50;4.28;;;14.80;98.40;;;;;;4991471;28;20042;-72
2021/09/19 06:13:23;;;;;;;8.10;4.18;;;14.80;98.40;;;;;;4981792;28;20034;-68
2021/09/19 06:15:49;;;;;;;10.10;4.13;;;14.90;98.40;;;;;;4972106;28;20042;-68
2021/09/19 06:18:15;;;;;;;8.00;3.90;;;14.80;98.40;;;;;;4972122;28;20102;-69
2021/09/19 06:20:40;;;;;;;9.10;4.10;;;14.90;98.40;;;;;;4971616;28;20429;-71
2021/09/19 06:23:07;;;;;;;8.10;3.70;;;14.90;98.40;;;;;;4972244;28;20145;-71
2021/09/19 06:25:32;;;;;;;6.50;3.92;;;14.80;98.40;;;;;;4972216;28;20034;-70
2021/09/19 06:27:58;;;;;;;12.07;3.97;;;14.90;98.40;;;;;;4971824;28;20755;-72
2021/09/19 06:30:25;;;;;;;8.52;4.47;;;14.90;98.40;;;;;;4975374;28;20456;-72
2021/09/19 06:32:51;;;;;;;7.82;4.30;;;14.90;98.30;;;;;;4975900;28;20362;-70
2021/09/19 06:35:17;;;;;;;7.22;4.38;;;14.90;98.30;;;;;;4974299;28;20027;-70
2021/09/19 06:37:42;;;;;;;4.97;3.53;;;14.90;98.40;;;;;;4975294;28;20533;-69
2021/09/19 06:40:08;;;;;;;7.40;3.90;;;14.90;98.50;;;;;;4975557;28;20424;-69
2021/09/19 06:42:34;;;;;;;6.38;3.25;;;15.00;98.40;;;;;;4975009;28;20381;-70
2021/09/19 06:44:59;;;;;;;10.43;4.30;;;15.00;98.40;;;;;;4975227;28;20046;-69
2021/09/19 06:47:25;;;;;;;9.48;3.97;;;15.00;98.40;;;;;;4975520;28;20403;-69
2021/09/19 06:49:52;;;;;;;6.28;3.95;;;15.10;98.40;;;;;;4975279;28;20035;-67
2021/09/19 06:52:18;;;;;;;11.60;4.05;;;15.10;98.30;;;;;;4975238;28;20051;-69
2021/09/19 06:54:44;;;;;;;7.53;4.15;;;15.10;98.30;;;;;;4974250;28;20035;-71
2021/09/19 06:57:10;;;;;;;10.10;4.57;;;15.10;98.20;;;;;;4974631;28;20030;-71
2021/09/19 06:59:36;;;;;;;8.43;4.57;;;15.10;98.10;;;;;;4975348;28;20026;-71
2021/09/19 07:02:02;;;;;;;8.27;4.10;;;15.10;98.10;;;;;;4974813;28;20034;-68
2021/09/19 07:04:27;;;;;;;10.45;4.00;;;15.20;98.10;;;;;;4974704;28;20043;-71
2021/09/19 07:06:53;;;;;;;8.35;3.92;;;15.20;98.10;;;;;;4974561;28;20038;-72
2021/09/19 07:09:19;;;;;;;7.07;3.65;;;15.20;98.10;;;;;;4974364;28;20397;-69
2021/09/19 07:11:44;;;;;;;7.03;4.38;;;15.20;98.10;;;;;;4973647;28;20057;-68
2021/09/19 07:14:10;;;;;;;6.55;3.63;;;15.20;98.10;;;;;;4973888;28;20033;-67
2021/09/19 07:16:35;;;;;;;7.03;4.25;;;15.30;97.90;;;;;;4974058;28;20377;-67
2021/09/19 07:19:01;;;;;;;8.00;3.72;;;15.30;97.90;;;;;;4974332;28;20069;-67
2021/09/19 07:21:26;;;;;;;11.93;4.18;;;15.30;97.90;;;;;;4974231;28;20258;-69
2021/09/19 07:23:52;;;;;;;8.68;3.33;;;15.40;98.00;;;;;;4974644;28;20027;-68
2021/09/19 07:26:18;;;;;;;10.02;4.38;;;15.40;97.90;;;;;;4974064;28;20461;-70
2021/09/19 07:28:44;;;;;;;14.02;3.85;;;15.30;97.70;;;;;;4974195;28;20038;-71
2021/09/19 07:31:10;;;;;;;8.07;3.33;;;15.50;97.80;;;;;;4974080;28;20031;-70
2021/09/19 07:33:36;;;;;;;8.27;3.53;;;15.50;97.70;;;;;;4974028;28;20038;-70
2021/09/19 07:36:02;;;;;;;6.43;3.80;;;15.60;97.80;;;;;;4974026;28;20054;-70
2021/09/19 07:38:28;;;;;;;11.13;3.55;;;15.60;97.50;;;;;;4974537;28;20054;-70
2021/09/19 07:40:54;;;;;;;7.45;3.67;;;15.50;97.40;;;;;;4973775;28;20027;-70
2021/09/19 07:43:19;;;;;;;7.05;3.50;;;15.50;97.40;;;;;;4973836;28;20035;-70
2021/09/19 07:45:45;;;;;;;6.70;3.92;;;15.60;97.50;;;;;;4972766;28;20461;-68
2021/09/19 07:48:13;;;;;;;7.35;4.20;;;15.50;97.40;;;;;;4972805;28;20118;-70
2021/09/19 07:50:39;;;;;;;5.28;3.38;;;15.60;97.50;;;;;;4974503;28;20050;-71
2021/09/19 07:53:05;;;;;;;7.93;3.50;;;15.60;97.40;;;;;;4973806;28;20604;-71
2021/09/19 07:55:32;;;;;;;8.13;3.47;;;15.60;97.10;;;;;;4972864;28;20125;-70
2021/09/19 07:57:58;;;;;;;5.15;3.58;;;15.60;96.90;;;;;;4973614;28;20482;-70
2021/09/19 08:00:24;;;;;;;10.07;3.35;;;15.60;96.90;;;;;;4973228;28;20069;-70
2021/09/19 08:02:49;;;;;;;8.93;3.70;;;15.60;96.80;;;;;;4973814;28;20034;-70
2021/09/19 08:05:15;;;;;;;7.13;3.40;;;15.70;96.90;;;;;;4973582;28;20065;-71
2021/09/19 08:07:41;;;;;;;8.52;4.32;;;15.70;96.80;;;;;;4973121;28;20385;-70
2021/09/19 08:10:08;;;;;;;6.63;3.55;;;15.70;96.70;;;;;;4973515;28;20034;-70
2021/09/19 08:12:34;;;;;;;6.65;3.53;;;15.70;96.60;;;;;;4973059;28;20027;-68
2021/09/19 08:14:59;;;;;;;6.70;3.97;;;15.70;96.50;;;;;;4973368;28;20030;-70
2021/09/19 08:17:25;;;;;;;6.18;3.60;;;15.80;96.60;;;;;;4973804;28;20330;-71
2021/09/19 08:19:51;;;;;;;4.72;3.08;;;15.80;96.40;;;;;;4973155;28;20094;-70
2021/09/19 08:22:16;;;;;;;8.77;3.67;;;15.80;96.50;;;;;;4972948;28;20041;-70
2021/09/19 08:24:42;;;;;;;5.93;3.20;;;15.80;96.50;;;;;;4973126;28;20039;-69
2021/09/19 08:27:08;;;;;;;7.88;4.63;;;15.80;96.40;;;;;;4973144;28;20039;-69
2021/09/19 08:29:37;;;;;;;6.28;4.00;;;15.90;96.10;;;;;;4973495;28;20030;-69
2021/09/19 08:32:03;;;;;;;7.82;3.30;;;15.90;96.30;;;;;;4973044;28;20034;-69
2021/09/19 08:34:29;;;;;;;6.88;3.53;;;16.00;96.20;;;;;;4973085;28;20031;-70
2021/09/19 08:36:55;;;;;;;8.98;3.92;;;16.00;95.90;;;;;;4972988;28;20138;-70
2021/09/19 08:39:20;;;;;;;7.78;3.38;;;16.00;95.60;;;;;;4973048;28;20035;-70
2021/09/19 08:41:49;;;;;;;6.80;3.33;;;16.00;95.80;;;;;;4973400;28;20031;-71
2021/09/19 08:44:17;;;;;;;7.88;3.47;;;16.10;95.90;;;;;;4973018;28;20058;-73
2021/09/19 08:46:44;;;;;;;5.65;3.13;;;16.00;95.80;;;;;;4972013;28;20035;-74
2021/09/19 08:49:11;;;;;;;7.28;3.60;;;16.10;95.70;;;;;;4973159;28;20039;-72
2021/09/19 08:51:37;;;;;;;7.13;3.65;;;16.20;95.90;;;;;;4971980;28;20058;-71
2021/09/19 08:54:03;;;;;;;7.65;3.60;;;16.20;95.80;;;;;;4972658;28;20023;-71
2021/09/19 08:56:28;;;;;;;7.55;3.35;;;16.30;95.60;;;;;;4973564;28;20035;-75
2021/09/19 08:58:54;;;;;;;5.30;3.00;;;16.30;95.50;;;;;;4972784;28;20030;-73
2021/09/19 09:01:21;;;;;;;7.45;3.13;;;16.30;95.40;;;;;;4972727;28;20042;-71
2021/09/19 09:03:48;;;;;;;4.28;3.03;;;16.30;95.00;;;;;;4972413;28;20034;-69
2021/09/19 09:06:17;;;;;;;8.65;3.60;;;16.30;94.80;;;;;;4972353;28;20034;-69
2021/09/19 09:08:44;;;;;;;3.20;2.63;;;16.20;94.70;;;;;;4972627;28;20138;-70
2021/09/19 09:11:11;;;;;;;6.53;2.78;;;16.20;94.80;;;;;;4972423;28;20038;-69
2021/09/19 09:13:40;;;;;;;5.93;2.70;;;16.20;94.70;;;;;;4972508;28;20037;-70
2021/09/19 09:16:07;;;;;;;5.35;2.95;;;16.20;94.60;;;;;;4972439;28;20094;-68
2021/09/19 09:18:52;;;;;;;6.38;2.88;;;16.20;94.60;;;;;;4972253;28;20483;-69
2021/09/19 09:21:28;;;;;;;8.40;3.30;;;16.20;94.50;;;;;;4971964;28;20047;-69
2021/09/19 09:23:59;;;;;;;7.82;2.78;;;16.20;94.30;;;;;;4971816;28;20062;-69
2021/09/19 09:26:30;;;;;;;4.82;2.83;;;16.20;94.30;;;;;;4972905;28;20073;-69
2021/09/19 09:29:13;;;;;;;3.53;2.47;;;16.20;94.20;;;;;;4972202;28;20031;-70
2021/09/19 09:31:58;;;;;;;3.97;2.80;;;16.20;94.10;;;;;;4972333;28;20065;-69
2021/09/19 09:34:25;;;;;;;8.45;3.05;;;16.30;94.40;;;;;;4972219;28;20122;-69
2021/09/19 09:36:54;;;;;;;5.38;3.08;;;16.40;94.20;;;;;;4972474;28;20066;-69
2021/09/19 09:39:21;;;;;;;;;;;16.40;94.50;;;;;;4972825;28;20066;-72
2021/09/19 09:41:46;;;;;;;5.20;3.30;;;16.40;93.80;;;;;;4972675;28;19917;-72
2021/09/19 09:44:24;;;;;;;4.75;2.90;;;16.40;93.60;;;;;;4972115;28;20031;-72
2021/09/19 09:46:50;;;;;;;6.90;2.95;;;16.40;93.30;;;;;;4972200;28;20038;-71
2021/09/19 09:49:21;;;;;;;9.82;3.20;;;16.40;93.40;;;;;;4972446;28;20058;-71
2021/09/19 09:51:46;;;;;;;3.88;2.38;;;16.40;93.00;;;;;;4972226;28;20524;-71
2021/09/19 09:54:16;;;;;;;9.27;3.15;;;16.40;93.00;;;;;;4971556;28;20027;-72
2021/09/19 09:56:44;;;;;;;8.02;2.92;;;16.50;93.20;;;;;;4972797;28;20119;-72
2021/09/19 09:59:10;;;;;;;;;;;16.50;93.10;;;;;;4972227;28;20118;-75
2021/09/19 10:01:37;;;;;;;6.03;2.63;;;16.50;93.30;;;;;;4972165;28;19993;-70
2021/09/19 10:04:04;;;;;;;6.63;2.80;;;16.60;93.30;;;;;;4974896;28;20066;-72
2021/09/19 10:06:30;;;;;;;3.50;2.50;;;16.60;92.90;;;;;;4972214;28;20536;-73
2021/09/19 10:08:56;;;;;;;5.20;2.47;;;16.60;92.90;;;;;;4957021;28;20047;-73
2021/09/19 10:11:22;;;;;;;3.60;2.22;;;16.60;92.70;;;;;;4975408;28;20035;-73
2021/09/19 10:13:49;;;;;;;5.03;2.25;;;16.60;92.70;;;;;;4974763;28;20090;-73
2021/09/19 10:16:16;;;;;;;2.83;1.80;;;16.60;92.70;;;;;;4975544;28;20034;-70
2021/09/19 10:18:47;;;;;;;3.90;2.22;;;16.60;92.20;;;;;;4975566;28;20062;-72
2021/09/19 10:21:15;;;;;;;5.93;3.65;;;16.50;92.10;;;;;;4975477;28;20027;-72
2021/09/19 10:23:41;;;;;;;4.68;2.70;;;16.60;92.30;;;;;;4976001;28;20030;-72
2021/09/19 10:26:08;;;;;;;7.95;2.70;;;16.60;92.10;;;;;;4975483;28;20027;-71
2021/09/19 10:28:44;;;;;;;5.90;2.78;;;16.60;92.10;;;;;;4975504;28;20023;-73
2021/09/19 10:31:18;;;;;;;3.88;2.30;;;16.60;91.80;;;;;;4975671;28;20030;-74
2021/09/19 10:34:04;;;;;;;6.00;2.20;;;16.60;91.90;;;;;;4974633;28;20030;-71
2021/09/19 10:36:49;;;;;;;5.55;2.20;;;16.50;91.70;;;;;;4975636;28;20031;-70
2021/09/19 10:39:21;;;;;;;3.55;2.47;;;16.60;91.90;;;;;;4975260;28;20031;-71
2021/09/19 10:42:13;;;;;;;4.70;2.38;;;16.50;91.90;;;;;;4982533;28;20015;-71
2021/09/19 10:44:45;;;;;;;3.50;2.05;;;16.60;91.80;;;;;;4994908;28;20049;-74
2021/09/19 10:47:26;;;;;;;7.85;2.28;;;16.60;92.10;;;;;;4993874;28;20034;-71
2021/09/19 10:50:12;;;;;;;3.90;2.25;;;16.50;92.10;;;;;;4994366;28;20042;-69
2021/09/19 10:52:45;;;;;;;3.97;2.33;;;16.60;92.00;;;;;;4994282;28;20051;-70
2021/09/19 10:55:25;;;;;;;6.30;2.63;;;16.60;91.80;;;;;;4984459;28;20035;-69
2021/09/19 10:57:58;;;;;;;4.80;2.63;;;16.70;92.20;;;;;;4981381;28;20116;-69
2021/09/19 11:00:24;;;;;;;5.60;2.35;;;16.90;92.00;;;;;;4993952;28;20038;-69
2021/09/19 11:03:02;;;;;;;4.00;2.05;;;16.90;91.40;;;;;;4991414;28;20026;-68
2021/09/19 11:05:49;;;;;;;8.30;4.03;;;16.90;91.10;;;;;;4994167;28;20030;-69
2021/09/19 11:08:20;;;;;;;14.77;3.03;;;16.90;91.20;;;;;;4993944;28;20481;-72
2021/09/19 11:10:45;;;;;;;2.63;2.00;;;16.90;91.30;;;;;;4993168;28;20117;-70
2021/09/19 11:13:29;;;;;;;4.13;2.70;;;16.90;91.30;;;;;;4994075;28;20141;-68
2021/09/19 11:16:03;;;;;;;7.00;2.55;;;17.00;91.40;;;;;;4993522;28;20038;-68
2021/09/19 11:18:50;;;;;;;4.47;2.95;;;17.00;91.30;;;;;;4993552;28;20457;-70
2021/09/19 11:21:27;;;;;;;7.33;3.40;;;16.90;91.40;;;;;;4993832;28;20404;-70
2021/09/19 11:23:59;;;;;;;5.63;2.63;;;16.80;91.30;;;;;;4994091;28;20291;-70
2021/09/19 11:26:50;;;;;;;3.90;2.60;;;16.80;91.60;;;;;;4993960;28;20100;-71
2021/09/19 11:29:24;;;;;;;6.95;2.63;;;16.80;91.40;;;;;;4993513;28;20454;-70
2021/09/19 11:31:51;;;;;;;4.63;2.55;;;16.80;91.20;;;;;;4992234;28;20080;-70
2021/09/19 11:34:18;;;;;;;11.68;2.63;;;16.70;91.20;;;;;;4993647;28;20081;-70
2021/09/19 11:36:47;;;;;;;9.15;3.47;;;16.70;91.30;;;;;;4993802;28;20093;-70
2021/09/19 11:39:14;;;;;;;7.00;3.38;;;16.70;91.70;;;;;;4993477;28;20023;-70
2021/09/19 11:41:42;;;;;;;5.78;3.58;;;16.70;91.60;;;;;;4993947;28;20464;-71
2021/09/19 11:44:11;;;;;;;10.40;2.97;;;16.70;91.10;;;;;;4990669;28;20038;-70
2021/09/19 11:46:42;;;;;;;5.38;2.22;;;16.70;91.40;;;;;;4973654;28;20035;-71
2021/09/19 11:49:08;;;;;;;4.50;2.63;;;16.70;91.20;;;;;;4973929;28;20114;-70
2021/09/19 11:51:33;;;;;;;6.22;2.65;;;16.70;91.00;;;;;;4973514;28;20122;-71
2021/09/19 11:53:59;;;;;;;5.82;2.60;;;16.60;91.10;;;;;;4971081;28;20030;-73
2021/09/19 11:56:27;;;;;;;4.45;2.17;;;16.70;91.10;;;;;;4993351;28;20050;-69
2021/09/19 11:58:53;;;;;;;5.25;2.55;;;16.80;90.80;;;;;;4992994;28;20104;-70
2021/09/19 12:01:27;;;;;;;8.30;2.67;;;16.80;90.80;;;;;;4993062;28;20041;-69
2021/09/19 12:04:03;;;;;;;4.13;2.42;;;16.90;90.90;;;;;;4992831;28;20069;-71
2021/09/19 12:06:28;;;;;;;5.22;2.85;;;17.00;90.90;;;;;;4991940;28;20456;-71
2021/09/19 12:08:54;;;;;;;4.18;2.40;;;16.80;89.60;;;;;;4992984;28;20046;-71
2021/09/19 12:11:20;;;;;;;4.65;2.17;;;16.90;90.10;;;;;;4993032;28;20045;-70
2021/09/19 12:13:48;;;;;;;5.75;2.70;;;17.00;89.90;;;;;;4992971;28;20177;-69
2021/09/19 12:16:19;;;;;;;;;;;17.00;89.90;;;;;;4983190;28;20027;-71
2021/09/19 12:18:50;;;;;;;9.38;2.40;;;17.00;89.60;;;;;;4978694;28;19918;-70
2021/09/19 12:21:17;;;;;;;7.55;2.40;;;17.00;90.30;;;;;;4992637;28;20448;-71
2021/09/19 12:23:52;;;;;;;4.90;2.15;;;17.10;89.30;;;;;;4992647;28;20026;-71
2021/09/19 12:26:23;;;;;;;4.72;2.30;;;17.00;89.30;;;;;;4991809;28;20046;-71
2021/09/19 12:28:51;;;;;;;4.28;2.33;;;17.10;89.20;;;;;;4992715;28;20049;-70
2021/09/19 12:31:41;;;;;;;6.35;2.08;;;17.00;88.70;;;;;;4992521;28;20041;-70
2021/09/19 12:34:08;;;;;;;3.63;2.40;;;17.00;89.30;;;;;;4992589;28;20461;-71
2021/09/19 12:36:41;;;;;;;3.80;2.30;;;17.00;89.50;;;;;;4992536;28;20121;-72
2021/09/19 12:39:25;;;;;;;6.70;2.20;;;17.10;88.80;;;;;;4991994;28;20432;-71
2021/09/19 12:41:54;;;;;;;2.97;2.15;;;17.00;88.10;;;;;;4992912;28;20057;-73
2021/09/19 12:44:23;;;;;;;5.03;2.28;;;17.00;87.60;;;;;;4992282;28;20080;-71
2021/09/19 12:46:55;;;;;;;3.35;1.80;;;17.00;87.90;;;;;;4992245;28;20031;-70